Time;durP1;ratioP1;P1;durP2;ratioP2;P2;SDS_P1;SDS_P2;PMS_P1;PMS_P2;Temp;Humidity;BMP_temperature;BMP_pressure;BME280_temperature;BME280_humidity;BME280_pressure;Samples;Min_cycle;Max_cycle;Signal;HPM_P1;HPM_P2
2022/04/11 00:01:37;;;;;;;3.47;2.20;;;;;;;;;;10420115;28;20274;-80
2022/04/11 00:06:38;;;;;;;3.13;1.70;;;;;;;;;;10424966;28;20203;-81
2022/04/11 00:11:39;;;;;;;1.35;1.30;;;;;;;;;;10420889;28;20289;-80
2022/04/11 00:16:40;;;;;;;3.60;1.77;;;;;;;;;;10421587;28;20217;-80
2022/04/11 00:21:41;;;;;;;2.28;1.60;;;;;;;;;;10421069;28;20203;-79
2022/04/11 00:26:43;;;;;;;2.30;1.40;;;;;;;;;;10419441;28;20206;-80
2022/04/11 00:31:44;;;;;;;1.88;1.77;;;;;;;;;;10419774;28;20733;-79
2022/04/11 00:36:45;;;;;;;1.48;1.48;;;;;;;;;;10421034;28;20208;-79
2022/04/11 00:41:46;;;;;;;1.67;1.40;;;;;;;;;;10400731;28;20198;-79
2022/04/11 00:46:47;;;;;;;3.00;2.17;;;;;;;;;;10398457;28;20218;-79
2022/04/11 00:51:48;;;;;;;1.70;1.60;;;;;;;;;;10416266;28;20203;-79
2022/04/11 00:56:50;;;;;;;2.65;1.80;;;;;;;;;;10417765;28;20249;-78
2022/04/11 01:01:51;;;;;;;1.65;1.55;;;;;;;;;;10416562;28;20297;-81
2022/04/11 01:06:56;;;;;;;1.40;1.40;;;;;;;;;;10420044;28;20744;-79
2022/04/11 01:11:57;;;;;;;2.47;1.33;;;;;;;;;;10422589;28;20268;-79
2022/04/11 01:16:59;;;;;;;3.22;1.80;;;;;;;;;;10426087;28;20290;-79
2022/04/11 01:22:00;;;;;;;4.25;2.00;;;;;;;;;;10420239;28;20199;-78
2022/04/11 01:27:01;;;;;;;3.63;1.70;;;;;;;;;;10420968;28;20196;-79
2022/04/11 01:32:04;;;;;;;3.05;1.70;;;;;;;;;;10405893;28;20686;-78
2022/04/11 01:37:05;;;;;;;3.80;2.10;;;;;;;;;;10423794;28;20242;-79
2022/04/11 01:42:06;;;;;;;2.75;2.22;;;;;;;;;;10419247;28;20191;-79
2022/04/11 01:47:08;;;;;;;1.88;1.67;;;;;;;;;;10420812;28;20609;-79
2022/04/11 01:52:11;;;;;;;3.72;1.55;;;;;;;;;;10418190;28;20198;-80
2022/04/11 01:57:12;;;;;;;2.30;1.40;;;;;;;;;;10420225;28;20232;-79
2022/04/11 02:02:13;;;;;;;2.25;1.52;;;;;;;;;;10417017;28;20220;-80
2022/04/11 02:07:14;;;;;;;2.15;1.30;;;;;;;;;;10428456;28;20203;-79
2022/04/11 02:12:15;;;;;;;2.97;1.73;;;;;;;;;;10424795;28;20238;-79
2022/04/11 02:17:16;;;;;;;1.77;1.60;;;;;;;;;;10425874;28;20225;-80
2022/04/11 02:22:17;;;;;;;2.10;1.50;;;;;;;;;;10405337;28;20199;-79
2022/04/11 02:27:18;;;;;;;2.47;1.35;;;;;;;;;;10419154;28;20214;-79
2022/04/11 02:32:21;;;;;;;2.58;1.95;;;;;;;;;;10422423;28;20258;-80
2022/04/11 02:37:23;;;;;;;1.73;1.63;;;;;;;;;;10422841;28;20211;-80
2022/04/11 02:42:25;;;;;;;1.55;1.45;;;;;;;;;;10419254;28;20222;-80
2022/04/11 02:47:31;;;;;;;2.70;1.35;;;;;;;;;;10413552;28;20203;-80
2022/04/11 02:52:33;;;;;;;1.63;1.48;;;;;;;;;;10422238;28;20283;-80
2022/04/11 02:57:36;;;;;;;3.55;1.40;;;;;;;;;;10419807;28;20229;-80
2022/04/11 03:02:39;;;;;;;1.83;1.17;;;;;;;;;;10402611;28;20341;-79
2022/04/11 03:07:40;;;;;;;2.00;1.27;;;;;;;;;;10416165;28;20203;-79
2022/04/11 03:12:42;;;;;;;2.70;1.23;;;;;;;;;;10410619;28;20763;-79
2022/04/11 03:17:44;;;;;;;4.68;1.23;;;;;;;;;;10410498;28;20204;-80
2022/04/11 03:22:48;;;;;;;3.60;1.52;;;;;;;;;;10413481;28;20734;-80
2022/04/11 03:27:49;;;;;;;1.17;1.17;;;;;;;;;;10417991;28;20745;-80
2022/04/11 03:32:52;;;;;;;1.93;1.67;;;;;;;;;;10411476;28;20304;-79
2022/04/11 03:37:54;;;;;;;2.30;2.20;;;;;;;;;;10415020;28;20376;-80
2022/04/11 03:42:59;;;;;;;1.50;1.50;;;;;;;;;;10405112;28;21091;-80
2022/04/11 03:48:01;;;;;;;1.83;1.70;;;;;;;;;;10404530;28;20191;-80
2022/04/11 03:53:05;;;;;;;2.22;1.70;;;;;;;;;;10422661;28;20209;-80
2022/04/11 03:58:10;;;;;;;5.45;1.90;;;;;;;;;;10398720;28;20255;-80
2022/04/11 04:03:17;;;;;;;3.35;2.20;;;;;;;;;;10415139;28;20668;-80
2022/04/11 04:08:23;;;;;;;4.87;2.07;;;;;;;;;;10415120;28;20207;-79
2022/04/11 04:13:36;;;;;;;1.80;1.65;;;;;;;;;;10413267;28;20203;-80
2022/04/11 04:18:38;;;;;;;3.55;1.58;;;;;;;;;;10398684;28;20213;-80
2022/04/11 04:23:43;;;;;;;4.90;2.33;;;;;;;;;;10416039;28;20198;-80
2022/04/11 04:28:45;;;;;;;5.07;2.60;;;;;;;;;;10402668;28;20238;-79
2022/04/11 04:33:46;;;;;;;1.50;1.40;;;;;;;;;;10420770;28;20219;-79
2022/04/11 04:38:48;;;;;;;2.75;1.23;;;;;;;;;;10413741;28;20312;-79
2022/04/11 04:43:50;;;;;;;1.85;1.75;;;;;;;;;;10407310;28;20198;-79
2022/04/11 04:48:54;;;;;;;4.47;1.70;;;;;;;;;;10415184;28;20202;-80
2022/04/11 04:53:58;;;;;;;1.70;1.55;;;;;;;;;;10417448;28;20211;-79
2022/04/11 04:59:01;;;;;;;3.45;1.38;;;;;;;;;;10400023;28;20198;-79
2022/04/11 05:04:03;;;;;;;4.73;1.70;;;;;;;;;;10416482;28;20210;-79
2022/04/11 05:09:08;;;;;;;2.65;1.98;;;;;;;;;;10417537;28;20208;-80
2022/04/11 05:14:09;;;;;;;7.20;2.73;;;;;;;;;;10417203;28;20199;-79
2022/04/11 05:19:11;;;;;;;3.50;2.65;;;;;;;;;;10424639;28;20225;-78
2022/04/11 05:24:14;;;;;;;2.92;2.65;;;;;;;;;;10418859;28;20238;-79
2022/04/11 05:29:15;;;;;;;3.00;2.70;;;;;;;;;;10422670;28;20199;-79
2022/04/11 05:34:16;;;;;;;2.80;2.35;;;;;;;;;;10421680;28;20268;-78
2022/04/11 05:39:18;;;;;;;3.78;2.60;;;;;;;;;;10421373;28;20211;-78
2022/04/11 05:44:19;;;;;;;3.53;2.58;;;;;;;;;;10410333;28;20199;-79
2022/04/11 05:49:21;;;;;;;2.88;2.65;;;;;;;;;;10421735;28;21037;-79
2022/04/11 05:54:22;;;;;;;2.78;2.67;;;;;;;;;;10420955;28;20227;-79
2022/04/11 05:59:23;;;;;;;3.70;3.10;;;;;;;;;;10424105;28;20206;-79
2022/04/11 06:04:25;;;;;;;6.85;3.65;;;;;;;;;;10417784;28;20224;-80
2022/04/11 06:09:27;;;;;;;3.33;3.08;;;;;;;;;;10410838;28;20211;-80
2022/04/11 06:14:28;;;;;;;6.47;2.97;;;;;;;;;;10425796;28;20207;-80
2022/04/11 06:19:31;;;;;;;4.25;3.13;;;;;;;;;;10410537;28;20264;-81
2022/04/11 06:24:32;;;;;;;2.35;2.15;;;;;;;;;;10424056;28;20206;-83
2022/04/11 06:29:35;;;;;;;3.05;2.70;;;;;;;;;;10433642;28;20214;-85
2022/04/11 06:34:37;;;;;;;9.20;2.45;;;;;;;;;;10433270;28;20741;-85
2022/04/11 06:39:39;;;;;;;2.28;1.52;;;;;;;;;;10417332;28;20207;-85
2022/04/11 06:44:40;;;;;;;1.70;1.60;;;;;;;;;;10416900;28;20291;-80
2022/04/11 06:49:52;;;;;;;1.42;1.33;;;;;;;;;;10428362;28;20210;-82
2022/04/11 06:54:53;;;;;;;1.10;1.10;;;;;;;;;;10427093;28;20227;-81
2022/04/11 06:59:54;;;;;;;2.40;1.30;;;;;;;;;;10430065;28;20215;-82
2022/04/11 07:04:55;;;;;;;1.77;0.80;;;;;;;;;;10428821;28;20212;-81
2022/04/11 07:09:58;;;;;;;2.55;1.00;;;;;;;;;;10426292;28;20925;-80
2022/04/11 07:15:02;;;;;;;2.90;1.15;;;;;;;;;;10428285;28;20198;-81
2022/04/11 07:20:04;;;;;;;0.95;0.90;;;;;;;;;;10424594;28;20212;-81
2022/04/11 07:25:05;;;;;;;3.38;1.27;;;;;;;;;;10424337;28;20809;-81
2022/04/11 07:30:06;;;;;;;1.38;1.23;;;;;;;;;;10427706;28;20203;-81
2022/04/11 07:35:08;;;;;;;1.25;1.15;;;;;;;;;;10423866;28;20329;-81
2022/04/11 07:40:09;;;;;;;1.70;1.20;;;;;;;;;;10426056;28;20211;-81
2022/04/11 07:45:10;;;;;;;1.85;1.02;;;;;;;;;;10425717;28;20286;-81
2022/04/11 07:50:11;;;;;;;1.10;0.80;;;;;;;;;;10425204;28;20248;-81
2022/04/11 07:55:15;;;;;;;1.67;0.90;;;;;;;;;;10424020;28;20305;-80
2022/04/11 08:00:17;;;;;;;1.05;0.90;;;;;;;;;;10424676;28;20683;-79
2022/04/11 08:05:19;;;;;;;0.75;0.75;;;;;;;;;;10424710;28;20211;-80
2022/04/11 08:10:24;;;;;;;1.85;0.82;;;;;;;;;;10422784;28;20735;-80
2022/04/11 08:15:26;;;;;;;2.05;1.00;;;;;;;;;;10423563;28;20298;-80
2022/04/11 08:20:27;;;;;;;2.78;1.10;;;;;;;;;;10423462;28;20219;-79
2022/04/11 08:25:28;;;;;;;3.40;0.95;;;;;;;;;;10422591;28;20294;-79
2022/04/11 08:30:29;;;;;;;3.28;1.08;;;;;;;;;;10405106;28;20198;-79
2022/04/11 08:35:30;;;;;;;0.70;0.70;;;;;;;;;;10423079;28;20229;-79
2022/04/11 08:40:32;;;;;;;2.70;0.90;;;;;;;;;;10421910;28;20272;-78
2022/04/11 08:45:33;;;;;;;1.17;1.13;;;;;;;;;;10420061;28;20203;-78
2022/04/11 08:50:34;;;;;;;1.10;0.90;;;;;;;;;;10419483;28;20286;-80
2022/04/11 08:55:35;;;;;;;1.95;1.10;;;;;;;;;;10420680;28;20253;-78
2022/04/11 09:00:36;;;;;;;2.75;0.90;;;;;;;;;;10419626;28;20223;-78
2022/04/11 09:05:37;;;;;;;0.90;0.90;;;;;;;;;;10420273;28;20199;-78
2022/04/11 09:10:38;;;;;;;1.58;1.10;;;;;;;;;;10418283;28;20210;-78
2022/04/11 09:15:41;;;;;;;9.43;0.90;;;;;;;;;;10422006;28;20214;-78
2022/04/11 09:20:42;;;;;;;2.55;1.20;;;;;;;;;;10419067;28;20214;-78
2022/04/11 09:25:43;;;;;;;2.00;0.98;;;;;;;;;;10422777;28;20207;-77
2022/04/11 09:30:47;;;;;;;1.73;0.93;;;;;;;;;;10419741;28;20725;-78
2022/04/11 09:35:48;;;;;;;1.80;1.10;;;;;;;;;;10420603;28;20199;-76
2022/04/11 09:40:51;;;;;;;2.55;0.88;;;;;;;;;;10425260;28;20210;-78
2022/04/11 09:45:52;;;;;;;0.80;0.80;;;;;;;;;;10424667;28;20238;-79
2022/04/11 09:50:54;;;;;;;1.15;1.05;;;;;;;;;;10425103;28;20604;-77
2022/04/11 09:55:56;;;;;;;1.65;1.42;;;;;;;;;;10428179;28;20253;-77
2022/04/11 10:00:58;;;;;;;3.47;1.30;;;;;;;;;;10423810;28;20210;-78
2022/04/11 10:05:59;;;;;;;1.05;1.02;;;;;;;;;;10425675;28;20289;-77
2022/04/11 10:11:01;;;;;;;2.88;1.48;;;;;;;;;;10427252;28;20563;-80
2022/04/11 10:16:03;;;;;;;1.75;1.15;;;;;;;;;;10424998;28;20209;-81
2022/04/11 10:21:05;;;;;;;1.80;1.52;;;;;;;;;;10424885;28;20195;-79
2022/04/11 10:26:16;;;;;;;3.45;2.15;;;;;;;;;;10427151;28;20196;-79
2022/04/11 10:31:17;;;;;;;1.58;1.48;;;;;;;;;;10422360;28;20342;-77
2022/04/11 10:36:38;;;;;;;2.65;2.00;;;;;;;;;;10423675;28;20756;-79
2022/04/11 10:41:55;;;;;;;4.78;2.10;;;;;;;;;;10424506;28;20598;-79
2022/04/11 10:47:08;;;;;;;2.30;2.20;;;;;;;;;;10425586;28;20261;-79
2022/04/11 10:52:24;;;;;;;2.47;2.30;;;;;;;;;;10427041;28;20270;-79
2022/04/11 10:57:32;;;;;;;4.40;2.13;;;;;;;;;;10451593;28;20574;-79
2022/04/11 11:02:52;;;;;;;2.67;2.45;;;;;;;;;;10465219;28;20690;-78
2022/04/11 11:08:11;;;;;;;3.20;2.63;;;;;;;;;;10463192;28;20289;-77
2022/04/11 11:13:26;;;;;;;2.78;2.58;;;;;;;;;;10446062;28;20725;-79
2022/04/11 11:18:28;;;;;;;2.40;2.30;;;;;;;;;;10465490;28;20309;-80
2022/04/11 11:23:34;;;;;;;2.33;2.15;;;;;;;;;;10462663;28;20198;-78
2022/04/11 11:28:35;;;;;;;2.30;2.20;;;;;;;;;;10457674;28;20214;-79
2022/04/11 11:33:37;;;;;;;2.35;2.25;;;;;;;;;;10461140;28;20601;-82
2022/04/11 11:38:38;;;;;;;2.38;2.28;;;;;;;;;;10463178;28;20306;-77
2022/04/11 11:43:39;;;;;;;1.85;1.83;;;;;;;;;;10464083;28;20242;-77
2022/04/11 11:48:41;;;;;;;1.95;1.85;;;;;;;;;;10463387;28;20214;-77
2022/04/11 11:53:43;;;;;;;4.35;2.22;;;;;;;;;;10446393;28;20300;-78
2022/04/11 11:58:45;;;;;;;2.42;2.30;;;;;;;;;;10463361;28;20235;-78
2022/04/11 12:09:06;;;;;;;2.10;2.00;;;;;;;;;;10459713;28;20260;-78
2022/04/11 12:14:08;;;;;;;2.42;2.22;;;;;;;;;;10460691;28;20190;-78
2022/04/11 12:19:09;;;;;;;2.95;2.75;;;;;;;;;;10459490;28;20308;-79
2022/04/11 12:24:11;;;;;;;3.92;3.00;;;;;;;;;;10462263;28;20658;-78
2022/04/11 12:29:17;;;;;;;2.42;2.20;;;;;;;;;;10462251;28;21117;-75
2022/04/11 12:34:18;;;;;;;2.60;2.42;;;;;;;;;;10461626;28;20230;-78
2022/04/11 12:39:20;;;;;;;2.17;2.08;;;;;;;;;;10461687;28;20228;-78
2022/04/11 12:44:27;;;;;;;2.47;2.28;;;;;;;;;;10461631;28;20281;-78
2022/04/11 12:49:44;;;;;;;2.10;2.00;;;;;;;;;;10443516;28;20287;-79
2022/04/11 12:54:47;;;;;;;2.38;2.25;;;;;;;;;;10442433;28;20780;-78
2022/04/11 12:59:49;;;;;;;2.30;2.13;;;;;;;;;;10454613;28;20221;-78
2022/04/11 13:04:54;;;;;;;2.47;2.28;;;;;;;;;;10461839;28;20221;-77
2022/04/11 13:09:55;;;;;;;2.50;2.40;;;;;;;;;;10462183;28;20586;-78
2022/04/11 13:14:56;;;;;;;2.70;2.50;;;;;;;;;;10466317;28;20217;-78
2022/04/11 13:19:57;;;;;;;4.22;2.42;;;;;;;;;;10469232;28;20205;-78
2022/04/11 13:24:58;;;;;;;2.50;2.30;;;;;;;;;;10469228;28;20214;-77
2022/04/11 13:29:59;;;;;;;2.85;2.47;;;;;;;;;;10466401;28;20198;-78
2022/04/11 13:35:00;;;;;;;2.40;2.30;;;;;;;;;;10467666;28;20316;-78
2022/04/11 13:40:01;;;;;;;3.85;2.95;;;;;;;;;;10468277;28;20698;-78
2022/04/11 13:45:03;;;;;;;2.60;2.47;;;;;;;;;;10464263;28;20346;-78
2022/04/11 13:50:04;;;;;;;2.75;2.65;;;;;;;;;;10463950;28;20213;-78
2022/04/11 13:55:06;;;;;;;3.03;2.80;;;;;;;;;;10465343;28;20236;-77
2022/04/11 14:00:07;;;;;;;5.25;3.10;;;;;;;;;;10467552;28;20589;-78
2022/04/11 14:05:11;;;;;;;3.25;3.05;;;;;;;;;;10451197;28;20215;-78
2022/04/11 14:10:12;;;;;;;3.22;2.90;;;;;;;;;;10463166;28;20230;-78
2022/04/11 14:15:13;;;;;;;3.20;3.00;;;;;;;;;;10467347;28;20669;-78
2022/04/11 14:20:15;;;;;;;3.30;3.20;;;;;;;;;;10467594;28;20321;-78
2022/04/11 14:25:16;;;;;;;3.05;2.95;;;;;;;;;;10465449;28;20198;-78
2022/04/11 14:30:17;;;;;;;2.90;2.80;;;;;;;;;;10468252;28;20255;-79
2022/04/11 14:35:18;;;;;;;3.10;2.92;;;;;;;;;;10466437;28;20679;-78
2022/04/11 14:40:19;;;;;;;3.17;2.97;;;;;;;;;;10464887;28;20201;-80
2022/04/11 14:45:21;;;;;;;3.25;3.05;;;;;;;;;;10465604;28;20635;-78
2022/04/11 14:50:23;;;;;;;3.38;3.20;;;;;;;;;;10466022;28;21014;-79
2022/04/11 14:55:24;;;;;;;3.80;3.50;;;;;;;;;;10463743;28;20624;-79
2022/04/11 15:00:25;;;;;;;3.10;2.90;;;;;;;;;;10466603;28;20241;-78
2022/04/11 15:05:26;;;;;;;4.00;3.65;;;;;;;;;;10464456;28;20310;-79
2022/04/11 15:10:27;;;;;;;3.45;3.35;;;;;;;;;;10463444;28;20209;-78
2022/04/11 15:15:28;;;;;;;4.00;2.90;;;;;;;;;;10447098;28;20332;-78
2022/04/11 15:20:30;;;;;;;4.70;4.40;;;;;;;;;;10451334;28;20210;-78
2022/04/11 15:25:31;;;;;;;3.55;3.22;;;;;;;;;;10464148;28;20268;-79
2022/04/11 15:30:32;;;;;;;3.88;3.47;;;;;;;;;;10463844;28;20206;-79
2022/04/11 15:35:34;;;;;;;3.97;3.75;;;;;;;;;;10463260;28;20226;-80
2022/04/11 15:40:35;;;;;;;4.13;3.70;;;;;;;;;;10464086;28;20214;-79
2022/04/11 15:45:36;;;;;;;4.00;3.72;;;;;;;;;;10464592;28;20210;-79
2022/04/11 15:50:37;;;;;;;4.65;4.35;;;;;;;;;;10462528;28;20237;-79
2022/04/11 15:55:38;;;;;;;4.05;3.75;;;;;;;;;;10463144;28;20222;-79
2022/04/11 16:00:41;;;;;;;4.10;3.83;;;;;;;;;;10464530;28;20221;-79
2022/04/11 16:05:42;;;;;;;4.32;3.92;;;;;;;;;;10464604;28;20198;-79
2022/04/11 16:10:43;;;;;;;4.03;3.72;;;;;;;;;;10447856;28;20202;-79
2022/04/11 16:15:44;;;;;;;4.85;4.57;;;;;;;;;;10443569;28;20202;-79
2022/04/11 16:20:45;;;;;;;4.88;4.55;;;;;;;;;;10459929;28;20301;-77
2022/04/11 16:25:47;;;;;;;4.68;4.47;;;;;;;;;;10462152;28;20645;-78
2022/04/11 16:30:48;;;;;;;3.83;3.53;;;;;;;;;;10463143;28;20221;-78
2022/04/11 16:35:49;;;;;;;4.10;3.78;;;;;;;;;;10463000;28;20297;-78
2022/04/11 16:40:50;;;;;;;4.60;4.28;;;;;;;;;;10462712;28;20248;-78
2022/04/11 16:45:51;;;;;;;4.10;3.80;;;;;;;;;;10469484;28;20263;-79
2022/04/11 16:50:55;;;;;;;4.20;3.90;;;;;;;;;;10468125;28;20628;-79
2022/04/11 16:55:57;;;;;;;4.15;3.75;;;;;;;;;;10469677;28;20705;-79
2022/04/11 17:01:01;;;;;;;4.38;4.18;;;;;;;;;;10453681;28;20225;-79
2022/04/11 17:06:03;;;;;;;5.22;4.93;;;;;;;;;;10469742;28;20210;-79
2022/04/11 17:11:04;;;;;;;5.47;4.45;;;;;;;;;;10471875;28;20203;-79
2022/04/11 17:21:25;;;;;;;4.82;4.53;;;;;;;;;;10469711;28;20202;-79
2022/04/11 17:26:26;;;;;;;4.53;4.22;;;;;;;;;;10471179;28;20194;-79
2022/04/11 17:31:27;;;;;;;4.43;4.03;;;;;;;;;;10466589;28;20222;-79
2022/04/11 17:36:29;;;;;;;4.75;4.35;;;;;;;;;;10471310;28;20240;-80
2022/04/11 17:41:30;;;;;;;5.68;5.25;;;;;;;;;;10469748;28;20202;-79
2022/04/11 17:46:31;;;;;;;8.02;6.13;;;;;;;;;;10468583;28;20213;-80
2022/04/11 17:51:32;;;;;;;5.88;5.28;;;;;;;;;;10470412;28;20212;-79
2022/04/11 17:56:34;;;;;;;5.30;5.00;;;;;;;;;;10429802;28;20305;-81
2022/04/11 18:01:35;;;;;;;4.65;4.35;;;;;;;;;;10429752;28;20793;-80
2022/04/11 18:06:37;;;;;;;7.20;6.50;;;;;;;;;;10430067;28;20686;-79
2022/04/11 18:11:38;;;;;;;6.82;6.32;;;;;;;;;;10429493;28;20797;-80
2022/04/11 18:16:39;;;;;;;7.63;6.80;;;;;;;;;;10425980;28;20321;-80
2022/04/11 18:21:40;;;;;;;5.30;5.07;;;;;;;;;;10424927;28;20214;-79
2022/04/11 18:26:41;;;;;;;6.80;5.72;;;;;;;;;;10430285;28;20900;-79
2022/04/11 18:31:42;;;;;;;5.30;5.00;;;;;;;;;;10429318;28;20360;-79
2022/04/11 18:36:43;;;;;;;5.60;5.13;;;;;;;;;;10427663;28;20626;-80
2022/04/11 18:41:44;;;;;;;5.45;5.05;;;;;;;;;;10428272;28;20273;-79
2022/04/11 18:46:46;;;;;;;5.82;5.45;;;;;;;;;;10427800;28;20263;-80
2022/04/11 18:51:47;;;;;;;6.13;5.72;;;;;;;;;;10428560;28;20268;-80
2022/04/11 18:56:49;;;;;;;7.47;6.85;;;;;;;;;;10452801;28;21444;-80
2022/04/11 19:01:50;;;;;;;7.40;6.90;;;;;;;;;;10467110;28;20210;-80
2022/04/11 19:06:51;;;;;;;7.03;6.50;;;;;;;;;;10467439;28;20201;-78
2022/04/11 19:11:52;;;;;;;7.60;6.95;;;;;;;;;;10469747;28;20218;-81
2022/04/11 19:16:54;;;;;;;7.28;6.78;;;;;;;;;;10450339;28;20209;-78
2022/04/11 19:21:55;;;;;;;7.30;6.80;;;;;;;;;;10447209;28;20206;-81
2022/04/11 19:26:56;;;;;;;8.57;7.75;;;;;;;;;;10480127;28;20198;-81
2022/04/11 19:31:57;;;;;;;7.28;6.65;;;;;;;;;;10466967;28;20241;-81
2022/04/11 19:36:58;;;;;;;9.35;7.70;;;;;;;;;;10467650;28;20225;-81
2022/04/11 19:41:59;;;;;;;8.50;7.45;;;;;;;;;;10467522;28;20740;-82
2022/04/11 19:47:00;;;;;;;8.07;7.25;;;;;;;;;;10448332;28;20344;-80
2022/04/11 19:52:02;;;;;;;8.75;8.00;;;;;;;;;;10465423;28;20205;-82
2022/04/11 19:57:03;;;;;;;8.63;7.82;;;;;;;;;;10467140;28;20230;-80
2022/04/11 20:02:04;;;;;;;8.30;7.50;;;;;;;;;;10466952;28;20580;-81
2022/04/11 20:07:06;;;;;;;8.48;7.68;;;;;;;;;;10466077;28;20245;-81
2022/04/11 20:12:07;;;;;;;11.18;7.75;;;;;;;;;;10471823;28;20592;-81
2022/04/11 20:17:08;;;;;;;9.18;7.70;;;;;;;;;;10465701;28;20217;-82
2022/04/11 20:22:09;;;;;;;10.57;8.73;;;;;;;;;;10467706;28;20225;-82
2022/04/11 20:27:10;;;;;;;9.68;8.68;;;;;;;;;;10468077;28;20282;-81
2022/04/11 20:32:11;;;;;;;12.43;9.38;;;;;;;;;;10464428;28;20218;-81
2022/04/11 20:37:13;;;;;;;10.10;9.20;;;;;;;;;;10456932;28;20255;-80
2022/04/11 20:42:14;;;;;;;10.35;9.40;;;;;;;;;;10467162;28;20201;-81
2022/04/11 20:47:15;;;;;;;12.25;9.55;;;;;;;;;;10466754;28;20198;-82
2022/04/11 20:52:16;;;;;;;11.32;9.80;;;;;;;;;;10464738;28;20219;-81
2022/04/11 20:57:17;;;;;;;11.05;9.20;;;;;;;;;;10467205;28;20225;-82
2022/04/11 21:02:18;;;;;;;10.05;8.98;;;;;;;;;;10465913;28;20207;-81
2022/04/11 21:07:19;;;;;;;10.57;9.57;;;;;;;;;;10446903;28;20198;-81
2022/04/11 21:12:21;;;;;;;9.15;8.40;;;;;;;;;;10449907;28;20217;-81
2022/04/11 21:17:22;;;;;;;10.43;9.50;;;;;;;;;;10464864;28;20206;-81
2022/04/11 21:22:23;;;;;;;9.77;8.98;;;;;;;;;;10466956;28;20286;-82
2022/04/11 21:27:24;;;;;;;9.73;8.73;;;;;;;;;;10465341;28;20222;-82
2022/04/11 21:32:25;;;;;;;10.02;8.77;;;;;;;;;;10471318;28;20621;-82
2022/04/11 21:37:26;;;;;;;9.82;8.70;;;;;;;;;;10473821;28;20297;-83
2022/04/11 21:42:27;;;;;;;10.30;9.20;;;;;;;;;;10471819;28;20206;-82
2022/04/11 21:47:28;;;;;;;9.45;8.57;;;;;;;;;;10474469;28;20301;-82
2022/04/11 21:52:29;;;;;;;9.77;8.80;;;;;;;;;;10471869;28;20614;-82
2022/04/11 21:57:30;;;;;;;13.05;9.02;;;;;;;;;;10441339;28;20256;-82
2022/04/11 22:07:52;;;;;;;9.60;8.55;;;;;;;;;;10434832;28;20218;-81
2022/04/11 22:12:53;;;;;;;9.73;8.80;;;;;;;;;;10428622;28;20289;-82
2022/04/11 22:17:54;;;;;;;11.57;8.52;;;;;;;;;;10435584;28;20618;-81
2022/04/11 22:22:55;;;;;;;11.10;8.90;;;;;;;;;;10429717;28;20221;-81
2022/04/11 22:27:56;;;;;;;9.38;8.48;;;;;;;;;;10428177;28;20207;-82
2022/04/11 22:32:58;;;;;;;10.82;7.68;;;;;;;;;;10432787;28;20224;-81
2022/04/11 22:37:59;;;;;;;9.57;8.35;;;;;;;;;;10427225;28;20250;-80
2022/04/11 22:43:00;;;;;;;10.23;8.75;;;;;;;;;;10431973;28;20199;-81
2022/04/11 22:48:01;;;;;;;9.63;8.55;;;;;;;;;;10428596;28;20693;-81
2022/04/11 22:53:03;;;;;;;8.05;7.35;;;;;;;;;;10431096;28;20238;-82
2022/04/11 22:58:06;;;;;;;9.27;8.52;;;;;;;;;;10467442;28;20222;-82
2022/04/11 23:03:08;;;;;;;9.13;8.23;;;;;;;;;;10468274;28;20628;-80
2022/04/11 23:08:09;;;;;;;9.80;8.45;;;;;;;;;;10473850;28;20218;-82
2022/04/11 23:13:10;;;;;;;10.95;9.25;;;;;;;;;;10457146;28;20206;-82
2022/04/11 23:18:11;;;;;;;9.93;9.02;;;;;;;;;;10472291;28;20213;-82
2022/04/11 23:23:12;;;;;;;9.82;8.88;;;;;;;;;;10473899;28;20206;-82
2022/04/11 23:28:13;;;;;;;12.63;9.50;;;;;;;;;;10471051;28;20203;-82
2022/04/11 23:33:14;;;;;;;10.73;9.55;;;;;;;;;;10472128;28;20243;-82
2022/04/11 23:38:15;;;;;;;10.13;9.13;;;;;;;;;;10471907;28;20584;-81
2022/04/11 23:43:20;;;;;;;10.60;9.40;;;;;;;;;;10473422;28;20198;-82
2022/04/11 23:48:21;;;;;;;9.52;8.63;;;;;;;;;;10469939;28;20210;-81
2022/04/11 23:53:22;;;;;;;9.77;8.80;;;;;;;;;;10469023;28;20301;-82
2022/04/11 23:58:23;;;;;;;9.95;8.48;;;;;;;;;;10471108;28;20230;-82
